Time;durP1;ratioP1;P1;durP2;ratioP2;P2;SDS_P1;SDS_P2;PMS_P1;PMS_P2;Temp;Humidity;BMP_temperature;BMP_pressure;BME280_temperature;BME280_humidity;BME280_pressure;Samples;Min_cycle;Max_cycle;Signal;HPM_P1;HPM_P2
2022/01/16 00:04:09;;;;;;;39.35;24.67;;;;;;;1.20;89.52;102226.13;5052528;28;20089;-68
2022/01/16 00:06:40;;;;;;;37.75;25.20;;;;;;;1.19;89.70;102221.75;5066697;28;20029;-70
2022/01/16 00:09:06;;;;;;;37.85;25.70;;;;;;;1.22;89.35;102217.03;5057177;28;20119;-70
2022/01/16 00:11:31;;;;;;;39.03;25.15;;;;;;;1.23;89.64;102229.34;5064469;28;20504;-69
2022/01/16 00:13:57;;;;;;;38.75;25.52;;;;;;;1.29;89.44;102220.00;5081809;28;20035;-69
2022/01/16 00:16:23;;;;;;;39.78;26.42;;;;;;;1.28;89.34;102225.47;5092659;28;20036;-69
2022/01/16 00:18:52;;;;;;;44.33;26.70;;;;;;;1.27;89.27;102218.44;5091973;28;20024;-68
2022/01/16 00:21:27;;;;;;;38.10;25.85;;;;;;;1.28;89.04;102234.31;5069394;28;20032;-68
2022/01/16 00:23:53;;;;;;;40.25;26.38;;;;;;;1.29;89.23;102219.16;5094928;28;20064;-69
2022/01/16 00:26:20;;;;;;;37.85;25.85;;;;;;;1.29;89.62;102208.50;5095351;28;20029;-68
2022/01/16 00:28:46;;;;;;;39.55;25.80;;;;;;;1.31;89.27;102201.19;5094906;28;20165;-69
2022/01/16 00:31:12;;;;;;;39.60;26.52;;;;;;;1.29;89.38;102181.81;5096624;28;20059;-68
2022/01/16 00:33:42;;;;;;;38.92;26.35;;;;;;;1.37;89.08;102184.66;5085153;28;20028;-69
2022/01/16 00:36:08;;;;;;;41.40;26.70;;;;;;;1.35;89.56;102205.31;5058063;28;20033;-69
2022/01/16 00:38:34;;;;;;;41.03;26.00;;;;;;;1.39;89.15;102204.91;5076068;28;20074;-69
2022/01/16 00:40:59;;;;;;;40.92;25.88;;;;;;;1.40;89.62;102208.41;5076159;28;20033;-68
2022/01/16 00:43:24;;;;;;;38.13;25.77;;;;;;;1.43;89.53;102202.81;5076104;28;20036;-68
2022/01/16 00:45:50;;;;;;;40.55;26.60;;;;;;;1.45;89.31;102203.56;5085526;28;20046;-69
2022/01/16 00:48:15;;;;;;;48.30;27.90;;;;;;;1.44;89.10;102196.50;5096073;28;20031;-69
2022/01/16 00:50:40;;;;;;;42.40;26.10;;;;;;;1.45;89.13;102197.34;5075008;28;20436;-69
2022/01/16 00:53:05;;;;;;;43.58;27.05;;;;;;;1.45;88.94;102211.56;5081669;28;20028;-69
2022/01/16 00:55:32;;;;;;;45.55;28.52;;;;;;;1.47;89.28;102206.91;5096150;28;20024;-70
2022/01/16 00:57:58;;;;;;;43.05;26.80;;;;;;;1.47;88.58;102185.56;5094807;28;20028;-69
2022/01/16 01:00:23;;;;;;;45.17;27.20;;;;;;;1.39;88.73;102167.56;5093494;28;20047;-69
2022/01/16 01:02:48;;;;;;;45.70;27.83;;;;;;;1.39;89.50;102166.72;5093856;28;20066;-70
2022/01/16 01:05:14;;;;;;;41.65;26.40;;;;;;;1.42;89.22;102175.31;5093646;28;20030;-69
2022/01/16 01:07:40;;;;;;;44.63;26.83;;;;;;;1.45;89.02;102179.53;5075426;28;20153;-68
2022/01/16 01:10:07;;;;;;;42.67;26.65;;;;;;;1.47;89.69;102174.91;5075607;28;20031;-70
2022/01/16 01:12:53;;;;;;;44.28;27.88;;;;;;;1.44;89.50;102183.19;5078610;28;20309;-70
2022/01/16 01:15:21;;;;;;;42.85;27.25;;;;;;;1.42;89.10;102180.63;5095879;28;20034;-69
2022/01/16 01:17:48;;;;;;;44.33;26.85;;;;;;;1.45;89.38;102179.53;5095609;28;20031;-69
2022/01/16 01:20:17;;;;;;;44.63;28.33;;;;;;;1.45;89.05;102168.88;5091583;28;20028;-69
2022/01/16 01:22:43;;;;;;;50.35;27.88;;;;;;;1.50;89.42;102173.81;5075626;28;20028;-68
2022/01/16 01:25:11;;;;;;;43.63;27.08;;;;;;;1.44;89.11;102159.16;5075003;28;20500;-69
2022/01/16 01:27:37;;;;;;;50.35;27.63;;;;;;;1.44;89.33;102172.50;5075103;28;20112;-69
2022/01/16 01:30:06;;;;;;;48.05;27.38;;;;;;;1.45;89.07;102182.22;5059461;28;20064;-69
2022/01/16 01:32:37;;;;;;;49.15;27.02;;;;;;;1.41;88.74;102178.09;5064191;28;20126;-68
2022/01/16 01:35:04;;;;;;;49.67;28.10;;;;;;;1.45;89.21;102168.88;5074276;28;20086;-68
2022/01/16 01:37:30;;;;;;;51.67;27.63;;;;;;;1.46;89.78;102121.69;5087085;28;20090;-68
2022/01/16 01:39:55;;;;;;;55.42;29.60;;;;;;;1.48;89.88;102099.25;5074460;28;20058;-68
2022/01/16 01:42:20;;;;;;;54.58;29.40;;;;;;;1.50;89.55;102085.78;5094735;28;20031;-69
2022/01/16 01:52:58;;;;;;;71.47;30.38;;;;;;;1.46;90.04;102138.53;5074923;28;20034;-68
2022/01/16 01:55:25;;;;;;;60.97;30.42;;;;;;;1.45;90.20;102136.88;5073495;28;20028;-69
2022/01/16 01:57:50;;;;;;;62.70;31.38;;;;;;;1.45;90.15;102152.88;5074570;28;20147;-69
2022/01/16 02:00:20;;;;;;;59.85;29.75;;;;;;;1.39;90.33;102158.72;5078765;28;20166;-69
2022/01/16 02:05:27;;;;;;;63.92;28.75;;;;;;;1.38;90.06;102173.03;5084307;28;20040;-69
2022/01/16 02:07:52;;;;;;;56.80;27.67;;;;;;;1.39;89.84;102186.25;5074377;28;20028;-70
2022/01/16 02:10:17;;;;;;;55.97;28.38;;;;;;;1.37;90.44;102171.34;5072773;28;20085;-70
2022/01/16 02:12:45;;;;;;;53.92;27.83;;;;;;;1.41;89.93;102178.09;5074371;28;20052;-70
2022/01/16 02:15:36;;;;;;;57.55;28.30;;;;;;;1.32;89.50;102192.22;5073218;28;20407;-69
2022/01/16 02:29:45;;;;;;;47.05;26.73;;;;;;;1.02;89.90;102181.34;5054172;28;20043;-69
2022/01/16 02:32:02;;;;;;;53.35;27.98;;;;;;;1.05;90.59;102201.59;5053486;28;20052;-69
2022/01/16 02:34:40;;;;;;;59.03;27.70;;;;;;;1.02;89.98;102209.84;5064019;28;20116;-70
2022/01/16 02:37:10;;;;;;;46.22;27.52;;;;;;;1.02;90.33;102201.84;5094017;28;20406;-69
2022/01/16 02:39:40;;;;;;;54.85;27.70;;;;;;;1.00;90.41;102203.81;5087054;28;20052;-69
2022/01/16 02:42:07;;;;;;;49.25;28.58;;;;;;;1.05;90.45;102193.59;5092873;28;20032;-69
2022/01/16 02:44:42;;;;;;;47.40;27.35;;;;;;;1.11;90.91;102192.22;5078295;28;20028;-71
2022/01/16 02:47:11;;;;;;;50.40;28.83;;;;;;;1.14;91.09;102187.47;5070006;28;20456;-69
2022/01/16 02:49:40;;;;;;;61.58;29.58;;;;;;;1.11;90.04;102187.75;5053401;28;20087;-69
2022/01/16 02:52:12;;;;;;;51.65;28.15;;;;;;;1.14;90.17;102182.16;5053756;28;20024;-69
2022/01/16 02:54:39;;;;;;;60.65;30.23;;;;;;;1.09;90.16;102173.72;5058505;28;20031;-69
2022/01/16 02:57:07;;;;;;;52.30;29.70;;;;;;;1.15;90.62;102167.84;5073901;28;20032;-69
2022/01/16 02:59:36;;;;;;;62.50;30.63;;;;;;;1.12;90.95;102160.13;5077228;28;20059;-70
2022/01/16 03:02:02;;;;;;;54.53;30.15;;;;;;;1.13;90.48;102148.44;5077505;28;20029;-70
2022/01/16 03:04:28;;;;;;;58.70;31.10;;;;;;;1.17;90.99;102149.88;5073177;28;20383;-70
2022/01/16 03:06:54;;;;;;;53.63;30.52;;;;;;;1.23;91.00;102138.69;5073265;28;20460;-69
2022/01/16 03:09:21;;;;;;;59.72;32.00;;;;;;;1.24;90.63;102135.06;5073425;28;20043;-70
2022/01/16 03:11:48;;;;;;;64.97;32.25;;;;;;;1.21;90.19;102135.31;5073027;28;20115;-70
2022/01/16 03:14:17;;;;;;;63.80;32.22;;;;;;;1.20;90.72;102130.97;5073252;28;20448;-70
2022/01/16 03:16:47;;;;;;;58.60;31.80;;;;;;;1.23;90.86;102130.69;5072202;28;20040;-70
2022/01/16 03:22:02;;;;;;;65.00;34.10;;;;;;;1.27;90.94;102131.28;5052956;28;20396;-69
2022/01/16 03:24:31;;;;;;;63.97;34.17;;;;;;;1.29;90.35;102118.66;5063721;28;20454;-70
2022/01/16 03:27:00;;;;;;;63.45;34.28;;;;;;;1.33;90.61;102132.56;5072819;28;20028;-69
2022/01/16 03:29:28;;;;;;;62.33;34.65;;;;;;;1.32;91.10;102120.22;5072943;28;20086;-68
2022/01/16 03:31:55;;;;;;;66.65;35.05;;;;;;;1.36;90.87;102124.28;5056413;28;20040;-70
2022/01/16 03:34:20;;;;;;;63.15;35.55;;;;;;;1.38;90.79;102115.19;5053010;28;20029;-69
2022/01/16 03:36:46;;;;;;;67.22;35.42;;;;;;;1.41;90.42;102124.75;5052737;28;20111;-70
2022/01/16 03:39:12;;;;;;;67.43;36.55;;;;;;;1.39;90.47;102119.56;5086076;28;20036;-69
2022/01/16 03:41:37;;;;;;;69.88;36.92;;;;;;;1.42;90.35;102126.47;5072565;28;20100;-69
2022/01/16 03:44:04;;;;;;;70.30;37.30;;;;;;;1.42;90.96;102116.63;5072729;28;20025;-70
2022/01/16 03:46:36;;;;;;;65.40;37.30;;;;;;;1.38;91.00;102119.69;5071923;28;20071;-69
2022/01/16 03:49:23;;;;;;;65.60;37.55;;;;;;;1.42;90.64;102121.13;5072552;28;20029;-68
2022/01/16 03:51:51;;;;;;;72.90;37.95;;;;;;;1.40;90.89;102118.59;5083646;28;20089;-69
2022/01/16 03:54:19;;;;;;;64.38;37.33;;;;;;;1.46;90.75;102121.69;5092491;28;20059;-68
2022/01/16 03:56:45;;;;;;;66.53;37.45;;;;;;;1.48;90.75;102117.91;5092610;28;20490;-70
2022/01/16 03:59:11;;;;;;;64.50;38.15;;;;;;;1.44;91.18;102121.81;5077852;28;20036;-70
2022/01/16 04:01:36;;;;;;;62.30;36.92;;;;;;;1.47;90.73;102116.22;5076242;28;20036;-69
2022/01/16 04:04:03;;;;;;;66.10;39.17;;;;;;;1.48;90.94;102112.59;5092670;28;20035;-71
2022/01/16 04:06:28;;;;;;;69.13;38.28;;;;;;;1.50;91.18;102115.13;5091496;28;20032;-70
2022/01/16 04:08:54;;;;;;;61.35;37.42;;;;;;;1.55;91.01;102132.38;5079148;28;20034;-69
2022/01/16 04:11:25;;;;;;;64.07;37.53;;;;;;;1.54;91.32;102128.06;5072529;28;20064;-69
2022/01/16 04:13:53;;;;;;;61.30;37.15;;;;;;;1.55;90.80;102120.88;5059951;28;20085;-70
2022/01/16 04:16:20;;;;;;;66.40;37.55;;;;;;;1.56;91.48;102123.41;5052411;28;20024;-69
2022/01/16 04:18:51;;;;;;;65.57;37.85;;;;;;;1.58;91.01;102117.94;5083489;28;20040;-69
2022/01/16 04:21:22;;;;;;;59.28;37.30;;;;;;;1.57;91.12;102114.44;5085021;28;20154;-69
2022/01/16 04:23:48;;;;;;;61.17;37.38;;;;;;;1.58;91.13;102110.78;5073276;28;20443;-69
2022/01/16 04:26:15;;;;;;;64.03;38.15;;;;;;;1.56;91.45;102106.56;5072287;28;20086;-69
2022/01/16 04:28:41;;;;;;;63.17;37.47;;;;;;;1.56;91.04;102109.25;5071045;28;20446;-70
2022/01/16 04:31:07;;;;;;;59.47;38.30;;;;;;;1.59;90.93;102112.47;5088934;28;20100;-69
2022/01/16 04:33:32;;;;;;;64.55;37.92;;;;;;;1.56;90.92;102110.06;5092541;28;20459;-70
2022/01/16 04:35:57;;;;;;;60.05;38.30;;;;;;;1.58;91.54;102118.78;5092218;28;20032;-69
2022/01/16 04:38:22;;;;;;;59.13;37.47;;;;;;;1.58;91.48;102124.13;5092185;28;20165;-70
2022/01/16 04:43:47;;;;;;;61.38;37.92;;;;;;;1.61;91.87;102119.50;5084842;28;20043;-71
2022/01/16 04:46:26;;;;;;;58.20;37.93;;;;;;;1.57;91.83;102111.78;5073202;28;20395;-71
2022/01/16 04:48:52;;;;;;;58.47;37.72;;;;;;;1.57;91.68;102098.44;5072181;28;20052;-70
2022/01/16 04:51:19;;;;;;;61.05;38.33;;;;;;;1.64;91.80;102103.22;5071643;28;20039;-70
2022/01/16 04:53:44;;;;;;;61.05;39.25;;;;;;;1.62;91.53;102102.53;5072056;28;20063;-70
2022/01/16 04:56:10;;;;;;;56.83;37.30;;;;;;;1.64;91.25;102100.56;5072093;28;20605;-70
2022/01/16 04:58:36;;;;;;;55.53;37.08;;;;;;;1.64;91.53;102097.88;5071321;28;20060;-70
2022/01/16 05:01:01;;;;;;;58.05;38.60;;;;;;;1.63;91.41;102090.84;5077140;28;20647;-70
2022/01/16 05:03:28;;;;;;;57.05;37.60;;;;;;;1.66;91.63;102093.25;5090997;28;20042;-69
2022/01/16 05:05:55;;;;;;;60.53;38.17;;;;;;;1.67;91.67;102105.63;5091609;28;20040;-70
2022/01/16 05:08:20;;;;;;;62.25;39.22;;;;;;;1.64;91.92;102093.38;5080354;28;20064;-70
2022/01/16 05:10:46;;;;;;;60.25;39.47;;;;;;;1.65;92.14;102083.56;5072369;28;20060;-70
2022/01/16 05:18:34;;;;;;;60.25;39.35;;;;;;;1.70;92.19;102092.00;5055551;28;20039;-71
2022/01/16 05:21:00;;;;;;;58.83;39.38;;;;;;;1.75;91.79;102093.28;5074086;28;20036;-69
2022/01/16 05:23:26;;;;;;;63.33;39.88;;;;;;;1.79;92.42;102093.03;5095699;28;20020;-70
2022/01/16 05:25:52;;;;;;;60.15;39.67;;;;;;;1.77;92.40;102083.31;5094150;28;20483;-70
2022/01/16 05:28:17;;;;;;;64.50;40.20;;;;;;;1.79;92.35;102085.84;5069790;28;20035;-70
2022/01/16 05:30:42;;;;;;;63.88;41.22;;;;;;;1.80;92.03;102087.53;5054050;28;20033;-69
2022/01/16 05:33:08;;;;;;;60.20;39.90;;;;;;;1.83;92.10;102091.75;5055072;28;20408;-70
2022/01/16 05:35:33;;;;;;;61.30;40.47;;;;;;;1.84;91.95;102096.97;5061409;28;20055;-70
2022/01/16 05:37:59;;;;;;;62.90;41.08;;;;;;;1.82;92.33;102093.59;5093282;28;20024;-70
2022/01/16 05:40:24;;;;;;;61.75;42.25;;;;;;;1.82;92.74;102090.91;5079965;28;20035;-70
2022/01/16 05:42:49;;;;;;;66.03;41.38;;;;;;;1.84;92.97;102101.44;5094133;28;20028;-70
2022/01/16 05:45:14;;;;;;;63.42;42.90;;;;;;;1.84;92.63;102099.66;5074575;28;20032;-69
2022/01/16 05:47:40;;;;;;;64.63;42.00;;;;;;;1.82;92.46;102104.25;5088198;28;20532;-69
2022/01/16 05:50:05;;;;;;;63.40;42.03;;;;;;;1.82;93.20;102117.59;5094975;28;20032;-70
2022/01/16 05:52:31;;;;;;;64.85;41.53;;;;;;;1.85;92.95;102112.00;5095077;28;20024;-70
2022/01/16 05:54:56;;;;;;;66.18;41.45;;;;;;;1.86;92.83;102113.69;5094943;28;20032;-70
2022/01/16 05:57:21;;;;;;;66.90;43.03;;;;;;;1.86;93.05;102113.69;5072963;28;20031;-71
2022/01/16 05:59:47;;;;;;;65.78;43.40;;;;;;;1.89;92.77;102110.75;5064094;28;20047;-69
2022/01/16 06:02:13;;;;;;;64.22;42.38;;;;;;;1.87;93.41;102114.53;5057432;28;20087;-70
2022/01/16 06:04:38;;;;;;;66.97;41.83;;;;;;;1.89;92.88;102110.75;5054637;28;20074;-72
2022/01/16 06:07:05;;;;;;;70.05;45.03;;;;;;;1.88;92.92;102106.38;5054119;28;20036;-71
2022/01/16 06:09:30;;;;;;;69.93;44.25;;;;;;;1.89;93.28;102112.59;5068700;28;20029;-70
2022/01/16 06:11:57;;;;;;;67.53;44.90;;;;;;;1.90;93.24;102106.25;5074366;28;20024;-70
2022/01/16 06:14:23;;;;;;;69.43;44.28;;;;;;;1.92;93.89;102106.97;5076816;28;20143;-70
2022/01/16 06:16:49;;;;;;;71.68;45.15;;;;;;;1.91;93.33;102110.59;5082603;28;20111;-70
2022/01/16 06:19:15;;;;;;;70.05;46.00;;;;;;;1.92;93.50;102107.81;5073798;28;20025;-71
2022/01/16 06:21:40;;;;;;;73.47;45.22;;;;;;;1.95;93.81;102109.38;5074001;28;20406;-69
2022/01/16 06:24:05;;;;;;;77.30;45.95;;;;;;;1.97;93.44;102109.22;5074060;28;20082;-70
2022/01/16 06:26:31;;;;;;;64.07;42.97;;;;;;;1.99;94.07;102109.91;5074162;28;20027;-71
2022/01/16 06:28:56;;;;;;;69.60;43.60;;;;;;;2.00;94.01;102108.94;5074052;28;20563;-70
2022/01/16 06:31:22;;;;;;;70.30;44.20;;;;;;;2.01;94.22;102105.28;5072524;28;20490;-71
2022/01/16 06:33:47;;;;;;;69.00;44.28;;;;;;;2.01;94.23;102111.47;5054044;28;20072;-70
2022/01/16 06:36:12;;;;;;;67.78;43.50;;;;;;;2.07;94.27;102124.28;5069343;28;20040;-69
2022/01/16 06:38:38;;;;;;;72.60;45.85;;;;;;;2.09;94.16;102132.16;5054046;28;20117;-71
2022/01/16 06:41:03;;;;;;;71.80;45.08;;;;;;;2.11;93.84;102139.06;5053426;28;20605;-71
2022/01/16 06:43:28;;;;;;;77.00;45.95;;;;;;;2.14;94.13;102148.59;5053885;28;20029;-70
2022/01/16 06:45:54;;;;;;;72.32;45.15;;;;;;;2.13;93.80;102136.25;5052301;28;20549;-70
2022/01/16 06:48:19;;;;;;;74.32;47.83;;;;;;;2.18;94.50;102139.34;5062683;28;20032;-72
2022/01/16 06:50:45;;;;;;;70.22;46.05;;;;;;;2.19;94.00;102143.69;5073515;28;20033;-70
2022/01/16 06:53:10;;;;;;;69.65;44.83;;;;;;;2.23;94.39;102134.41;5073257;28;20024;-72
2022/01/16 06:55:35;;;;;;;70.13;44.50;;;;;;;2.23;94.13;102147.75;5088942;28;20040;-71
2022/01/16 06:58:01;;;;;;;71.00;44.38;;;;;;;2.26;93.63;102142.13;5093314;28;20035;-71
2022/01/16 07:00:26;;;;;;;72.07;45.38;;;;;;;2.28;93.82;102150.88;5092827;28;20471;-71
2022/01/16 07:02:51;;;;;;;69.88;43.47;;;;;;;2.30;94.07;102153.41;5074443;28;20029;-70
2022/01/16 07:05:17;;;;;;;65.32;42.70;;;;;;;2.36;94.25;102162.72;5053409;28;20024;-70
2022/01/16 07:07:43;;;;;;;66.32;42.88;;;;;;;2.37;93.44;102161.69;5053448;28;20044;-72
2022/01/16 07:10:08;;;;;;;66.63;41.78;;;;;;;2.38;93.55;102152.72;5053265;28;20033;-71
2022/01/16 07:12:34;;;;;;;66.43;42.58;;;;;;;2.40;93.63;102158.75;5053385;28;20226;-70
2022/01/16 07:14:59;;;;;;;65.50;41.78;;;;;;;2.40;93.65;102156.09;5067686;28;20094;-70
2022/01/16 07:17:24;;;;;;;65.70;42.22;;;;;;;2.42;93.73;102173.66;5072469;28;20028;-72
2022/01/16 07:19:50;;;;;;;60.40;39.97;;;;;;;2.44;94.04;102185.06;5090244;28;20028;-71
2022/01/16 07:22:15;;;;;;;64.07;40.10;;;;;;;2.46;93.87;102184.91;5080800;28;20146;-72
2022/01/16 07:24:40;;;;;;;64.72;40.17;;;;;;;2.46;93.79;102195.59;5072746;28;20024;-72
2022/01/16 07:27:06;;;;;;;60.15;39.38;;;;;;;2.50;93.17;102199.69;5072868;28;20035;-72
2022/01/16 07:29:31;;;;;;;64.55;39.58;;;;;;;2.47;93.64;102205.31;5082755;28;20032;-71
2022/01/16 07:31:57;;;;;;;62.80;40.10;;;;;;;2.48;93.83;102199.84;5092877;28;20440;-71
2022/01/16 07:34:22;;;;;;;64.38;39.80;;;;;;;2.52;93.43;102208.44;5092710;28;20402;-73
2022/01/16 07:36:48;;;;;;;63.08;38.80;;;;;;;2.53;92.83;102218.13;5082521;28;20028;-72
2022/01/16 07:39:13;;;;;;;61.38;38.25;;;;;;;2.55;93.72;102232.22;5073792;28;20047;-71
2022/01/16 07:41:38;;;;;;;59.08;38.65;;;;;;;2.56;93.56;102223.19;5064785;28;20037;-71
2022/01/16 07:44:04;;;;;;;58.15;36.42;;;;;;;2.60;93.47;102213.09;5052482;28;20076;-73
2022/01/16 07:46:29;;;;;;;62.55;37.95;;;;;;;2.57;93.01;102211.53;5052760;28;20507;-72
2022/01/16 07:48:55;;;;;;;60.05;38.00;;;;;;;2.61;93.37;102220.09;5052581;28;20091;-72
2022/01/16 07:51:20;;;;;;;59.67;36.30;;;;;;;2.64;93.60;102226.03;5054899;28;20083;-72
2022/01/16 07:53:45;;;;;;;62.22;37.20;;;;;;;2.66;93.09;102226.72;5062321;28;20033;-75
2022/01/16 07:56:11;;;;;;;60.22;37.35;;;;;;;2.68;93.29;102231.09;5072386;28;20031;-75
2022/01/16 07:58:36;;;;;;;58.33;37.55;;;;;;;2.70;93.28;102237.97;5082642;28;20039;-74
2022/01/16 08:01:03;;;;;;;58.25;36.97;;;;;;;2.74;93.66;102246.56;5088513;28;20054;-75
2022/01/16 08:03:28;;;;;;;59.03;37.00;;;;;;;2.74;93.35;102247.41;5083419;28;20036;-74
2022/01/16 08:05:54;;;;;;;64.55;37.63;;;;;;;2.77;92.92;102252.47;5070993;28;20028;-74
2022/01/16 08:08:19;;;;;;;59.50;37.65;;;;;;;2.77;93.36;102251.63;5063504;28;20384;-73
2022/01/16 08:10:44;;;;;;;59.65;36.10;;;;;;;2.76;93.25;102250.81;5052401;28;20025;-74
2022/01/16 08:13:09;;;;;;;59.67;37.47;;;;;;;2.82;93.24;102252.06;5072446;28;20056;-73
2022/01/16 08:15:35;;;;;;;58.03;35.47;;;;;;;2.81;93.56;102242.38;5089628;28;20398;-74
2022/01/16 08:18:00;;;;;;;61.58;37.13;;;;;;;2.81;93.94;102231.69;5092422;28;20019;-76
2022/01/16 08:20:26;;;;;;;57.95;36.30;;;;;;;2.83;93.58;102227.03;5092580;28;20066;-79
2022/01/16 08:22:52;;;;;;;59.10;37.15;;;;;;;2.83;93.50;102227.84;5092360;28;20107;-74
2022/01/16 08:25:18;;;;;;;61.22;37.10;;;;;;;2.83;93.84;102221.69;5073291;28;20032;-79
2022/01/16 08:27:43;;;;;;;62.85;38.33;;;;;;;2.84;93.69;102210.84;5071107;28;20044;-74
2022/01/16 08:30:10;;;;;;;60.15;36.70;;;;;;;2.88;93.85;102222.09;5072108;28;20378;-80
2022/01/16 08:32:35;;;;;;;62.75;37.38;;;;;;;2.87;93.85;102225.78;5079067;28;20085;-69
2022/01/16 08:35:00;;;;;;;63.72;37.42;;;;;;;2.90;93.80;102219.28;5067100;28;20040;-71
2022/01/16 08:37:26;;;;;;;61.53;38.08;;;;;;;2.89;94.32;102217.59;5052176;28;20029;-73
2022/01/16 08:39:51;;;;;;;64.25;37.40;;;;;;;2.92;94.38;102226.19;5068949;28;20438;-72
2022/01/16 08:42:16;;;;;;;64.32;37.97;;;;;;;2.94;93.98;102221.53;5071831;28;20028;-75
2022/01/16 08:44:42;;;;;;;63.63;37.63;;;;;;;2.94;93.73;102232.22;5058679;28;20029;-71
2022/01/16 08:47:08;;;;;;;65.32;37.38;;;;;;;2.95;94.09;102223.22;5055904;28;20033;-71
2022/01/16 08:49:34;;;;;;;63.20;37.67;;;;;;;2.95;94.34;102217.88;5054794;28;20032;-71
2022/01/16 08:52:00;;;;;;;64.97;38.13;;;;;;;3.01;94.05;102232.50;5055796;28;20056;-71
2022/01/16 08:54:25;;;;;;;62.85;38.45;;;;;;;3.00;94.09;102236.16;5055782;28;20073;-68
2022/01/16 08:56:51;;;;;;;65.57;38.08;;;;;;;3.00;94.45;102239.69;5055889;28;20037;-68
2022/01/16 08:59:16;;;;;;;63.50;37.55;;;;;;;3.04;94.12;102253.63;5055494;28;20033;-69
2022/01/16 09:01:41;;;;;;;64.97;38.00;;;;;;;3.13;94.25;102259.97;5053201;28;20526;-69
2022/01/16 09:04:06;;;;;;;69.85;39.10;;;;;;;3.10;94.09;102260.25;5055534;28;20033;-69
2022/01/16 09:06:32;;;;;;;68.35;36.17;;;;;;;3.08;94.06;102259.53;5055424;28;20428;-70
2022/01/16 09:08:58;;;;;;;65.70;35.38;;;;;;;3.12;94.34;102258.28;5055393;28;20036;-69
2022/01/16 09:11:25;;;;;;;69.68;38.70;;;;;;;3.10;94.61;102262.94;5055663;28;20047;-69
2022/01/16 09:13:54;;;;;;;73.10;39.58;;;;;;;3.14;94.18;102259.81;5054316;28;20035;-68
2022/01/16 09:16:20;;;;;;;69.68;39.10;;;;;;;3.20;94.40;102269.09;5055356;28;20064;-68
2022/01/16 09:18:48;;;;;;;73.25;39.35;;;;;;;3.22;94.38;102268.97;5055582;28;20036;-69
2022/01/16 09:21:15;;;;;;;74.72;40.22;;;;;;;3.22;94.43;102283.19;5055249;28;20037;-68
2022/01/16 09:23:40;;;;;;;70.25;38.80;;;;;;;3.23;94.21;102276.88;5055772;28;20041;-69
2022/01/16 09:26:05;;;;;;;69.75;38.03;;;;;;;3.25;94.45;102288.25;5053815;28;20110;-69
2022/01/16 09:28:31;;;;;;;75.78;40.70;;;;;;;3.24;94.21;102283.06;5055330;28;20107;-69
2022/01/16 09:30:56;;;;;;;76.40;41.20;;;;;;;3.27;94.78;102291.63;5055331;28;20112;-68
2022/01/16 09:33:21;;;;;;;84.05;43.25;;;;;;;3.31;94.09;102287.69;5053840;28;20313;-69
2022/01/16 09:35:47;;;;;;;85.57;43.55;;;;;;;3.31;94.18;102290.38;5055193;28;20475;-71
2022/01/16 09:38:12;;;;;;;85.57;45.50;;;;;;;3.29;94.29;102300.38;5054938;28;20408;-72
2022/01/16 09:40:38;;;;;;;90.90;44.88;;;;;;;3.28;94.45;102301.34;5055149;28;20499;-71
2022/01/16 09:43:04;;;;;;;96.55;47.15;;;;;;;3.27;94.89;102306.84;5054775;28;20174;-70
2022/01/16 09:45:30;;;;;;;99.30;47.72;;;;;;;3.30;95.02;102306.56;5054999;28;20444;-72
2022/01/16 09:47:55;;;;;;;94.85;45.75;;;;;;;3.31;95.30;102310.94;5053636;28;20032;-71
2022/01/16 09:50:24;;;;;;;91.80;45.97;;;;;;;3.33;94.96;102308.94;5054778;28;20365;-69
2022/01/16 09:52:50;;;;;;;99.53;46.20;;;;;;;3.32;95.16;102309.94;5053545;28;20361;-69
2022/01/16 09:55:17;;;;;;;97.25;47.63;;;;;;;3.30;95.44;102318.09;5054132;28;20029;-69
2022/01/16 09:57:42;;;;;;;102.55;45.75;;;;;;;3.34;95.45;102311.50;5054134;28;20388;-70
2022/01/16 10:00:12;;;;;;;109.68;48.45;;;;;;;3.36;95.47;102314.84;5053012;28;20049;-69
2022/01/16 10:02:38;;;;;;;102.95;48.03;;;;;;;3.36;95.44;102319.38;5051950;28;20443;-69
2022/01/16 10:05:25;;;;;;;106.38;49.67;;;;;;;3.44;95.86;102334.72;5054363;28;20082;-69
2022/01/16 10:07:51;;;;;;;104.90;45.22;;;;;;;3.43;95.70;102327.66;5054662;28;20045;-69
2022/01/16 10:10:17;;;;;;;110.47;49.33;;;;;;;3.46;95.01;102343.47;5054589;28;20028;-69
2022/01/16 10:12:54;;;;;;;109.55;48.20;;;;;;;3.46;95.66;102343.47;5054547;28;20496;-69
2022/01/16 10:15:26;;;;;;;99.80;46.53;;;;;;;3.46;96.02;102343.47;5053016;28;20036;-69
2022/01/16 10:17:54;;;;;;;104.75;48.08;;;;;;;3.46;96.31;102344.31;5054543;28;20040;-69
2022/01/16 10:20:21;;;;;;;110.65;47.88;;;;;;;3.50;96.31;102344.84;5053860;28;20465;-69
2022/01/16 10:22:49;;;;;;;106.45;47.38;;;;;;;3.55;96.41;102350.66;5054759;28;20040;-69
2022/01/16 10:25:17;;;;;;;104.40;46.72;;;;;;;3.57;96.04;102351.34;5053730;28;20025;-69
2022/01/16 10:27:45;;;;;;;109.63;47.42;;;;;;;3.61;95.67;102357.25;5053934;28;20400;-69
2022/01/16 10:30:14;;;;;;;117.38;47.13;;;;;;;3.59;95.86;102357.38;5053983;28;20039;-69
2022/01/16 10:32:46;;;;;;;96.50;41.30;;;;;;;3.66;95.67;102349.66;5054180;28;20118;-70
2022/01/16 10:35:19;;;;;;;105.15;45.53;;;;;;;3.63;95.87;102349.94;5053843;28;20033;-69
2022/01/16 10:37:48;;;;;;;104.65;46.85;;;;;;;3.61;95.59;102342.06;5054040;28;20102;-69
2022/01/16 10:40:16;;;;;;;104.30;43.67;;;;;;;3.61;96.10;102355.44;5053464;28;20413;-70
2022/01/16 10:42:52;;;;;;;107.53;45.28;;;;;;;3.75;95.35;102358.66;5053877;28;20115;-72
2022/01/16 10:45:21;;;;;;;109.75;45.10;;;;;;;3.69;95.70;102352.03;5053357;28;20365;-71
2022/01/16 10:47:51;;;;;;;99.90;43.33;;;;;;;3.73;95.44;102351.63;5053837;28;20610;-71
2022/01/16 10:50:19;;;;;;;102.70;45.30;;;;;;;3.71;96.09;102350.91;5053608;28;20040;-72
2022/01/16 10:52:49;;;;;;;106.82;45.35;;;;;;;3.79;96.04;102354.69;5053727;28;20112;-69
2022/01/16 10:55:15;;;;;;;91.45;43.03;;;;;;;3.82;95.57;102351.72;5053482;28;20072;-69
2022/01/16 10:57:41;;;;;;;98.93;44.15;;;;;;;3.84;95.34;102353.28;5053716;28;20037;-71
2022/01/16 11:00:11;;;;;;;96.28;43.47;;;;;;;3.87;96.06;102358.34;5052805;28;20087;-71
2022/01/16 11:02:38;;;;;;;97.35;42.15;;;;;;;3.89;95.60;102366.25;5051067;28;20037;-71
2022/01/16 11:05:05;;;;;;;95.18;42.30;;;;;;;3.85;95.90;102362.16;5052164;28;20124;-71
2022/01/16 11:07:30;;;;;;;92.88;43.60;;;;;;;3.85;95.84;102363.03;5053500;28;20025;-69
2022/01/16 11:09:55;;;;;;;98.80;43.72;;;;;;;3.90;95.58;102368.78;5053440;28;20112;-69
2022/01/16 11:12:22;;;;;;;90.13;41.80;;;;;;;3.92;95.58;102359.75;5053155;28;20475;-69
2022/01/16 11:14:48;;;;;;;95.28;43.22;;;;;;;3.89;95.73;102366.25;5053334;28;20029;-70
2022/01/16 11:17:14;;;;;;;97.65;43.67;;;;;;;3.88;96.04;102370.75;5053064;28;20100;-69
2022/01/16 11:19:39;;;;;;;101.75;44.75;;;;;;;3.89;96.32;102371.59;5053304;28;20068;-69
2022/01/16 11:22:10;;;;;;;95.70;42.63;;;;;;;3.93;96.29;102367.66;5053212;28;20078;-70
2022/01/16 11:24:47;;;;;;;93.97;40.80;;;;;;;3.94;96.27;102363.13;5053165;28;20029;-69
2022/01/16 11:27:16;;;;;;;93.05;41.80;;;;;;;3.97;96.01;102363.72;5052990;28;20025;-69
2022/01/16 11:29:42;;;;;;;90.28;43.22;;;;;;;3.95;95.83;102357.63;5053078;28;20058;-69
2022/01/16 11:32:08;;;;;;;91.97;42.67;;;;;;;3.98;95.92;102365.38;5052553;28;20470;-69
2022/01/16 11:34:35;;;;;;;93.85;40.78;;;;;;;4.00;95.41;102367.91;5052994;28;20381;-70
2022/01/16 11:37:01;;;;;;;93.57;42.22;;;;;;;3.97;95.43;102366.38;5053069;28;20135;-69
2022/01/16 11:39:35;;;;;;;90.65;43.30;;;;;;;4.01;95.56;102367.75;5052801;28;20178;-69
2022/01/16 11:42:00;;;;;;;95.75;43.42;;;;;;;4.00;95.71;102366.09;5052891;28;20029;-69
2022/01/16 11:44:31;;;;;;;91.30;42.67;;;;;;;4.00;95.62;102370.59;5052564;28;20589;-69
2022/01/16 11:46:59;;;;;;;84.15;38.85;;;;;;;4.01;95.01;102361.56;5051169;28;20055;-70
2022/01/16 11:49:33;;;;;;;90.53;41.85;;;;;;;3.97;95.40;102363.72;5052322;28;20025;-70
2022/01/16 11:52:07;;;;;;;87.65;42.10;;;;;;;4.00;95.24;102362.56;5052599;28;20365;-70